Betancuria — EAMH — position and weather

sailwx.info

Track history (hours):
 
Tides and Currents Weather Stations Pressure Air Temp Water Temp Dewpoint Dewpoint Depression Visibility Wind Speed Wind Dir Waves Ship Positions

Betancuria

Last reported at 2015-May-29 01:27 UTC. Time now 2015-May-29 02:17 UTC.
Position N 36°30' W 001°23'.

Length 141 m; draft 4.7 m.

Type: Ship. MMSI: 224471000.

Date/timePositionNaut miles runAvg speedWind from/ knotsBaromVisibWave heightAir tempDewpointWater temp
2015-May-29 01:27N 36°30' W 001°23'1010.7
2015-May-29 00:32N 36°27' W 001°34'3411.0
2015-May-28 21:26N 36°18' W 002°15'1210.2
2015-May-28 20:16N 36°17' W 002°30'11 9.8
2015-May-28 19:11N 36°15' W 002°43'6 9.6
2015-May-28 18:33N 36°14' W 002°51'12 9.7
2015-May-28 17:18N 36°13' W 003°05'8 9.5
2015-May-28 16:26N 36°12' W 003°16'9 9.3
2015-May-28 15:30N 36°11' W 003°26'8911.2
2015-May-28 07:33N 36°00' W 005°15'1212.4
2015-May-28 06:33N 35°57' W 005°30'9310.1
2015-May-27 21:22N 36°10' W 007°24'911.3
2015-May-27 20:33N 36°13' W 007°35'1211.7
2015-May-27 19:33N 36°15' W 007°49'1311.9
2015-May-27 18:30N 36°19' W 008°04'1111.8
2015-May-27 17:33N 36°22' W 008°17'1211.8
2015-May-27 16:33N 36°25' W 008°31'1211.6
2015-May-27 15:33N 36°28' W 008°45'1211.8
2015-May-27 14:33N 36°31' W 008°59'1111.7
2015-May-27 13:33N 36°34' W 009°13'1111.3
2015-May-27 12:33N 36°41' W 009°24'1111.1
2015-May-27 11:33N 36°50' W 009°33'1211.8
2015-May-27 10:33N 37°02' W 009°36'1211.7
2015-May-27 09:33N 37°13' W 009°39'1111.4
2015-May-27 08:33N 37°24' W 009°42'1211.6
2015-May-27 07:33N 37°36' W 009°45'1211.9
2015-May-27 06:33N 37°47' W 009°50'1212.0
2015-May-27 05:33N 37°59' W 009°53'1211.6
2015-May-27 04:33N 38°10' W 009°55'1212.0
2015-May-27 03:33N 38°22' W 009°59'1212.1
2015-May-27 02:34N 38°33' W 010°03'1211.7
2015-May-27 01:33N 38°45' W 010°06'1211.7
2015-May-27 00:31N 38°57' W 010°06'1111.9
2015-May-26 23:33N 39°08' W 010°06'1211.6
2015-May-26 22:33N 39°20' W 010°06'1211.7
2015-May-26 21:33N 39°32' W 010°06'1211.8
2015-May-26 20:33N 39°44' W 010°06'1211.6
2015-May-26 19:33N 39°55' W 010°06'1111.6
2015-May-26 18:33N 40°07' W 010°06'1211.6
2015-May-26 17:33N 40°18' W 010°06'1211.6
2015-May-26 16:33N 40°30' W 010°06'1211.7
2015-May-26 15:33N 40°42' W 010°06'  
2015-May-20 15:07N 49°42' W 000°46'713.1
2015-May-20 14:33N 49°38' W 000°36'1212.2
2015-May-20 13:33N 49°33' W 000°19'9 8.7
2015-May-20 12:32N 49°28' W 000°07'0 0.0
2015-May-20 11:32N 49°28' W 000°07'0 0.0
2015-May-20 10:32N 49°28' W 000°07'0 0.0
2015-May-20 09:31N 49°28' W 000°07'0 0.1
2015-May-20 08:32N 49°28' W 000°07'0 0.0
2015-May-20 07:28N 49°28' W 000°07'0 0.0
2015-May-20 06:32N 49°28' W 000°07'0 0.0
2015-May-20 05:31N 49°28' W 000°07'0 0.0
2015-May-20 04:31N 49°28' W 000°07'0 0.0
2015-May-20 03:31N 49°28' W 000°07'0 0.0
2015-May-20 02:31N 49°28' W 000°07'0 0.0
2015-May-20 01:31N 49°28' W 000°07'0 0.0
2015-May-20 00:31N 49°28' W 000°07'0 0.0
2015-May-19 23:31N 49°28' W 000°07'0 0.0
2015-May-19 22:31N 49°28' W 000°07'0 0.0
2015-May-19 21:31N 49°28' W 000°07'0 0.0
2015-May-19 20:31N 49°28' W 000°07'0 0.0
2015-May-19 19:31N 49°28' W 000°07'0 0.0
2015-May-19 18:31N 49°28' W 000°07'0 0.0
2015-May-19 17:31N 49°28' W 000°07'0 0.0
2015-May-19 16:32N 49°28' W 000°07'0 0.0
2015-May-19 15:28N 49°28' W 000°07'0 0.0
2015-May-19 14:31N 49°28' W 000°07'0 0.0
2015-May-19 13:31N 49°28' W 000°07'0 0.0
2015-May-19 12:31N 49°28' W 000°07'0 0.0
2015-May-19 11:31N 49°28' W 000°07'0 0.0
2015-May-19 10:31N 49°28' W 000°07'0 0.0
2015-May-19 09:31N 49°28' W 000°07'0 0.0
2015-May-19 08:31N 49°28' W 000°07'0 0.0
2015-May-19 07:31N 49°28' W 000°07'0 0.0
2015-May-19 06:31N 49°28' W 000°07'0 0.0
2015-May-19 05:31N 49°28' W 000°07'0 0.0
2015-May-19 04:32N 49°28' W 000°07'0 0.0
2015-May-19 03:31N 49°28' W 000°07'0 0.1
2015-May-19 02:31N 49°28' W 000°07'0 0.0
2015-May-19 01:31N 49°28' W 000°07'  
Track history (hours):
 
Tides and Currents Weather Stations Pressure Air Temp Water Temp Dewpoint Dewpoint Depression Visibility Wind Speed Wind Dir Waves Ship Positions

Betancuria

Last reported at 2015-May-29 01:27 UTC. Time now 2015-May-29 02:17 UTC.
Position N 36°30' W 001°23'.

Length 141 m; draft 4.7 m.

Type: Ship. MMSI: 224471000.

Date/timePositionNaut miles runAvg speedWind from/ knotsBaromVisibWave heightAir tempDewpointWater temp
2015-May-29 01:27N 36°30' W 001°23'1010.7
2015-May-29 00:32N 36°27' W 001°34'3411.0
2015-May-28 21:26N 36°18' W 002°15'1210.2
2015-May-28 20:16N 36°17' W 002°30'11 9.8
2015-May-28 19:11N 36°15' W 002°43'6 9.6
2015-May-28 18:33N 36°14' W 002°51'12 9.7
2015-May-28 17:18N 36°13' W 003°05'8 9.5
2015-May-28 16:26N 36°12' W 003°16'9 9.3
2015-May-28 15:30N 36°11' W 003°26'8911.2
2015-May-28 07:33N 36°00' W 005°15'1212.4
2015-May-28 06:33N 35°57' W 005°30'9310.1
2015-May-27 21:22N 36°10' W 007°24'911.3
2015-May-27 20:33N 36°13' W 007°35'1211.7
2015-May-27 19:33N 36°15' W 007°49'1311.9
2015-May-27 18:30N 36°19' W 008°04'1111.8
2015-May-27 17:33N 36°22' W 008°17'1211.8
2015-May-27 16:33N 36°25' W 008°31'1211.6
2015-May-27 15:33N 36°28' W 008°45'1211.8
2015-May-27 14:33N 36°31' W 008°59'1111.7
2015-May-27 13:33N 36°34' W 009°13'1111.3
2015-May-27 12:33N 36°41' W 009°24'1111.1
2015-May-27 11:33N 36°50' W 009°33'1211.8
2015-May-27 10:33N 37°02' W 009°36'1211.7
2015-May-27 09:33N 37°13' W 009°39'1111.4
2015-May-27 08:33N 37°24' W 009°42'1211.6
2015-May-27 07:33N 37°36' W 009°45'1211.9
2015-May-27 06:33N 37°47' W 009°50'1212.0
2015-May-27 05:33N 37°59' W 009°53'1211.6
2015-May-27 04:33N 38°10' W 009°55'1212.0
2015-May-27 03:33N 38°22' W 009°59'1212.1
2015-May-27 02:34N 38°33' W 010°03'1211.7
2015-May-27 01:33N 38°45' W 010°06'1211.7
2015-May-27 00:31N 38°57' W 010°06'1111.9
2015-May-26 23:33N 39°08' W 010°06'1211.6
2015-May-26 22:33N 39°20' W 010°06'1211.7
2015-May-26 21:33N 39°32' W 010°06'1211.8
2015-May-26 20:33N 39°44' W 010°06'1211.6
2015-May-26 19:33N 39°55' W 010°06'1111.6
2015-May-26 18:33N 40°07' W 010°06'1211.6
2015-May-26 17:33N 40°18' W 010°06'1211.6
2015-May-26 16:33N 40°30' W 010°06'1211.7
2015-May-26 15:33N 40°42' W 010°06'  
2015-May-20 15:07N 49°42' W 000°46'713.1
2015-May-20 14:33N 49°38' W 000°36'1212.2
2015-May-20 13:33N 49°33' W 000°19'9 8.7
2015-May-20 12:32N 49°28' W 000°07'0 0.0
2015-May-20 11:32N 49°28' W 000°07'0 0.0
2015-May-20 10:32N 49°28' W 000°07'0 0.0
2015-May-20 09:31N 49°28' W 000°07'0 0.1
2015-May-20 08:32N 49°28' W 000°07'0 0.0
2015-May-20 07:28N 49°28' W 000°07'0 0.0
2015-May-20 06:32N 49°28' W 000°07'0 0.0
2015-May-20 05:31N 49°28' W 000°07'0 0.0
2015-May-20 04:31N 49°28' W 000°07'0 0.0
2015-May-20 03:31N 49°28' W 000°07'0 0.0
2015-May-20 02:31N 49°28' W 000°07'0 0.0
2015-May-20 01:31N 49°28' W 000°07'0 0.0
2015-May-20 00:31N 49°28' W 000°07'0 0.0
2015-May-19 23:31N 49°28' W 000°07'0 0.0
2015-May-19 22:31N 49°28' W 000°07'0 0.0
2015-May-19 21:31N 49°28' W 000°07'0 0.0
2015-May-19 20:31N 49°28' W 000°07'0 0.0
2015-May-19 19:31N 49°28' W 000°07'0 0.0
2015-May-19 18:31N 49°28' W 000°07'0 0.0
2015-May-19 17:31N 49°28' W 000°07'0 0.0
2015-May-19 16:32N 49°28' W 000°07'0 0.0
2015-May-19 15:28N 49°28' W 000°07'0 0.0
2015-May-19 14:31N 49°28' W 000°07'0 0.0
2015-May-19 13:31N 49°28' W 000°07'0 0.0
2015-May-19 12:31N 49°28' W 000°07'0 0.0
2015-May-19 11:31N 49°28' W 000°07'0 0.0
2015-May-19 10:31N 49°28' W 000°07'0 0.0
2015-May-19 09:31N 49°28' W 000°07'0 0.0
2015-May-19 08:31N 49°28' W 000°07'0 0.0
2015-May-19 07:31N 49°28' W 000°07'0 0.0
2015-May-19 06:31N 49°28' W 000°07'0 0.0
2015-May-19 05:31N 49°28' W 000°07'0 0.0
2015-May-19 04:32N 49°28' W 000°07'0 0.0
2015-May-19 03:31N 49°28' W 000°07'0 0.1
2015-May-19 02:31N 49°28' W 000°07'0 0.0
2015-May-19 01:31N 49°28' W 000°07'  

Dump ship's entire track history